createdAt,value
2022-09-10T00:01:29.939Z,76.59
2022-09-10T00:03:56.738Z,76.54
2022-09-10T00:06:27.000Z,76.53
2022-09-10T00:08:59.015Z,76.78
2022-09-10T00:11:31.914Z,76.69
2022-09-10T00:14:04.626Z,76.46
2022-09-10T00:16:32.591Z,76.28
2022-09-10T00:19:01.262Z,76.67
2022-09-10T00:21:29.824Z,77.21
2022-09-10T00:23:57.929Z,76.73
2022-09-10T00:26:29.636Z,77.02
2022-09-10T00:29:01.208Z,77.16
2022-09-10T00:31:30.399Z,76.63
2022-09-10T00:33:59.326Z,76.37
2022-09-10T00:36:29.990Z,76.52
2022-09-10T00:39:05.197Z,76.61
2022-09-10T00:41:37.475Z,76.76
2022-09-10T00:44:41.215Z,76.59
2022-09-10T00:47:22.069Z,76.66
2022-09-10T00:50:00.703Z,76.94
2022-09-10T00:52:29.250Z,76.31
2022-09-10T00:54:57.327Z,76.55
2022-09-10T00:57:28.490Z,77.29
2022-09-10T01:00:03.912Z,77.74
2022-09-10T01:02:30.564Z,77.49
2022-09-10T01:05:00.741Z,77.57
2022-09-10T01:07:30.194Z,77.61
2022-09-10T01:10:02.297Z,77.85
2022-09-10T01:13:11.732Z,78.15
2022-09-10T01:15:54.360Z,78.68
2022-09-10T01:18:49.529Z,78.45
2022-09-10T01:21:42.772Z,78.57
2022-09-10T01:24:52.386Z,78.84
2022-09-10T01:27:40.227Z,78.93
2022-09-10T01:30:41.316Z,78.67
2022-09-10T01:33:15.393Z,78.92
2022-09-10T01:35:46.645Z,79.14
2022-09-10T01:38:22.847Z,78.92
2022-09-10T01:40:50.854Z,79.03
2022-09-10T01:43:17.514Z,78.76
2022-09-10T01:46:03.152Z,79.06
2022-09-10T01:48:47.782Z,78.45
2022-09-10T01:51:31.812Z,79.08
2022-09-10T01:54:45.510Z,78.72
2022-09-10T01:57:42.792Z,79.60
2022-09-10T02:00:14.591Z,79.27
2022-09-10T02:03:06.085Z,78.98
2022-09-10T02:05:37.205Z,79.12
2022-09-10T02:08:13.265Z,78.76
2022-09-10T02:11:06.069Z,78.55
2022-09-10T02:13:34.468Z,78.32
2022-09-10T02:16:06.172Z,77.67
2022-09-10T02:18:33.898Z,78.47
2022-09-10T02:21:03.196Z,78.49
2022-09-10T02:23:42.532Z,78.15
2022-09-10T02:26:09.477Z,78.56
2022-09-10T02:28:37.559Z,78.20
2022-09-10T02:31:04.896Z,78.14
2022-09-10T02:33:31.504Z,77.99
2022-09-10T02:35:58.611Z,78.37
2022-09-10T02:38:29.191Z,78.01
2022-09-10T02:40:59.184Z,78.06
2022-09-10T02:43:27.905Z,78.19
2022-09-10T02:45:59.175Z,78.20
2022-09-10T02:48:27.859Z,78.22
2022-09-10T02:50:54.622Z,78.02
2022-09-10T02:53:21.810Z,78.52
2022-09-10T02:55:49.131Z,78.30
2022-09-10T02:58:16.758Z,78.49
2022-09-10T03:00:47.578Z,78.37
2022-09-10T03:03:14.796Z,77.38
2022-09-10T03:05:41.616Z,76.98
2022-09-10T03:08:09.617Z,76.91
2022-09-10T03:10:39.288Z,77.19
2022-09-10T03:13:06.364Z,77.56
2022-09-10T03:15:32.971Z,76.49
2022-09-10T03:17:59.754Z,76.60
2022-09-10T03:20:27.256Z,75.97
2022-09-10T03:22:53.855Z,76.76
2022-09-10T03:25:20.574Z,76.60
2022-09-10T03:27:47.151Z,76.68
2022-09-10T03:30:13.742Z,76.34
2022-09-10T03:32:40.599Z,76.27
2022-09-10T03:35:08.060Z,76.35
2022-09-10T03:37:34.604Z,76.67
2022-09-10T03:40:01.324Z,76.91
2022-09-10T03:42:27.896Z,76.23
2022-09-10T03:44:56.252Z,76.92
2022-09-10T03:47:22.861Z,76.65
2022-09-10T03:49:50.722Z,76.24
2022-09-10T03:52:18.421Z,76.72
2022-09-10T03:54:50.007Z,76.46
2022-09-10T03:57:16.861Z,76.37
2022-09-10T03:59:43.490Z,76.42
2022-09-10T04:02:10.082Z,76.48
2022-09-10T04:04:39.393Z,76.44
2022-09-10T04:07:06.140Z,76.68
2022-09-10T04:09:34.021Z,76.78
2022-09-10T04:12:00.634Z,76.87
2022-09-10T04:14:27.280Z,76.57
2022-09-10T04:16:54.217Z,76.59
2022-09-10T04:19:20.953Z,76.55
2022-09-10T04:21:48.296Z,76.79
2022-09-10T04:24:15.206Z,76.71
2022-09-10T04:26:41.850Z,76.88
2022-09-10T04:29:08.825Z,76.70
2022-09-10T04:31:35.498Z,76.34
2022-09-10T04:34:02.165Z,76.62
2022-09-10T04:36:29.440Z,76.43
2022-09-10T04:38:56.110Z,75.99
2022-09-10T04:41:23.260Z,76.71
2022-09-10T04:43:49.830Z,76.42
2022-09-10T04:46:17.832Z,76.54
2022-09-10T04:48:44.620Z,77.01
2022-09-10T04:51:17.523Z,76.73
2022-09-10T04:53:45.990Z,77.09
2022-09-10T04:56:13.023Z,76.43
2022-09-10T04:58:41.056Z,76.34
2022-09-10T05:01:08.571Z,76.63
2022-09-10T05:03:35.694Z,76.65
2022-09-10T05:06:03.419Z,77.11
2022-09-10T05:08:30.093Z,75.17
2022-09-10T05:10:58.752Z,75.38
2022-09-10T05:13:25.438Z,75.25
2022-09-10T05:15:51.962Z,75.36
2022-09-10T05:18:18.489Z,75.59
2022-09-10T05:20:45.500Z,75.57
2022-09-10T05:23:12.513Z,75.08
2022-09-10T05:25:39.138Z,75.53
2022-09-10T05:28:05.877Z,75.78
2022-09-10T05:30:32.813Z,76.55
2022-09-10T05:33:03.146Z,76.24
2022-09-10T05:35:30.243Z,77.04
2022-09-10T05:37:58.289Z,76.98
2022-09-10T05:40:25.443Z,77.90
2022-09-10T05:42:52.958Z,79.18
2022-09-10T05:45:20.444Z,79.52
2022-09-10T05:47:47.683Z,79.97
2022-09-10T05:50:14.547Z,79.37
2022-09-10T05:52:41.156Z,79.90
2022-09-10T05:55:08.408Z,80.21
2022-09-10T05:57:35.496Z,79.85
2022-09-10T06:00:06.876Z,80.02
2022-09-10T06:02:33.697Z,81.05
2022-09-10T06:05:00.696Z,80.43
2022-09-10T06:07:30.400Z,80.51
2022-09-10T06:09:57.633Z,79.75
2022-09-10T06:12:24.327Z,79.98
2022-09-10T06:14:50.939Z,78.07
2022-09-10T06:17:17.697Z,79.16
2022-09-10T06:19:48.104Z,79.35
2022-09-10T06:22:16.942Z,79.85
2022-09-10T06:24:43.761Z,78.83
2022-09-10T06:27:10.306Z,78.87
2022-09-10T06:29:36.894Z,79.30
2022-09-10T06:32:04.547Z,78.83
2022-09-10T06:34:31.536Z,78.82
2022-09-10T06:36:58.383Z,79.13
2022-09-10T06:39:25.050Z,79.36
2022-09-10T06:41:53.939Z,79.46
2022-09-10T06:44:22.187Z,79.41
2022-09-10T06:49:36.469Z,80.28
2022-09-10T06:52:03.666Z,78.52
2022-09-10T06:54:31.931Z,79.76
2022-09-10T06:56:58.948Z,79.40
2022-09-10T06:59:25.976Z,79.10
2022-09-10T07:01:52.597Z,79.80
2022-09-10T07:04:19.317Z,79.80
2022-09-10T07:06:47.515Z,80.38
2022-09-10T07:09:14.707Z,78.62
2022-09-10T07:11:41.902Z,80.00
2022-09-10T07:14:13.773Z,80.09
2022-09-10T07:16:44.584Z,78.43
2022-09-10T07:19:17.352Z,78.01
2022-09-10T07:21:44.785Z,79.22
2022-09-10T07:24:12.626Z,77.33
2022-09-10T07:26:39.499Z,78.53
2022-09-10T07:29:06.891Z,76.66
2022-09-10T07:31:37.138Z,78.33
2022-09-10T07:34:04.815Z,76.33
2022-09-10T07:36:32.695Z,76.69
2022-09-10T07:39:03.423Z,77.57
2022-09-10T07:41:34.713Z,77.83
2022-09-10T07:44:01.582Z,76.07
2022-09-10T07:46:28.485Z,76.62
2022-09-10T07:48:58.163Z,77.63
2022-09-10T07:51:29.111Z,76.96
2022-09-10T07:53:59.005Z,78.12
2022-09-10T07:56:26.207Z,78.95
2022-09-10T07:58:56.933Z,77.18
2022-09-10T08:01:23.813Z,77.94
2022-09-10T08:03:50.393Z,77.81
2022-09-10T08:06:17.261Z,78.49
2022-09-10T08:08:43.983Z,78.81
2022-09-10T08:11:16.593Z,78.13
2022-09-10T08:13:47.499Z,79.02
2022-09-10T08:16:16.915Z,77.44
2022-09-10T08:18:43.756Z,78.24
2022-09-10T08:21:11.225Z,77.85
2022-09-10T08:23:41.230Z,77.65
2022-09-10T08:26:08.826Z,77.36
2022-09-10T08:28:36.615Z,78.97
2022-09-10T08:31:08.798Z,78.84
2022-09-10T08:33:41.802Z,79.75
2022-09-10T08:36:12.371Z,79.31
2022-09-10T08:38:41.866Z,78.80
2022-09-10T08:41:52.753Z,78.66
2022-09-10T08:44:29.958Z,77.56
2022-09-10T08:47:00.431Z,77.28
2022-09-10T08:49:52.982Z,78.25
2022-09-10T08:52:42.028Z,80.91
2022-09-10T08:55:18.280Z,80.75
2022-09-10T08:58:20.900Z,80.42
2022-09-10T09:00:55.856Z,81.19
2022-09-10T09:03:35.518Z,80.47
2022-09-10T09:06:07.909Z,81.74
2022-09-10T09:08:48.667Z,80.72
2022-09-10T09:12:07.695Z,80.74
2022-09-10T09:15:12.401Z,81.33
2022-09-10T09:18:29.864Z,79.07
2022-09-10T09:21:16.543Z,78.30
2022-09-10T09:24:12.772Z,78.34
2022-09-10T09:26:47.503Z,78.46
2022-09-10T09:29:44.112Z,74.71
2022-09-10T09:32:16.366Z,74.25
2022-09-10T09:34:55.088Z,74.68
2022-09-10T09:37:31.371Z,75.55
2022-09-10T09:40:30.479Z,73.49
2022-09-10T09:43:09.692Z,72.81
2022-09-10T09:45:43.909Z,74.45
2022-09-10T09:48:16.011Z,75.40
2022-09-10T09:50:47.934Z,76.01
2022-09-10T09:53:27.256Z,76.47
2022-09-10T09:56:22.334Z,75.05
2022-09-10T09:58:51.014Z,76.12
2022-09-10T10:01:27.707Z,76.00
2022-09-10T10:04:02.723Z,76.24
2022-09-10T10:06:34.602Z,76.53
2022-09-10T10:09:28.914Z,75.73
2022-09-10T10:11:57.859Z,75.57
2022-09-10T10:14:32.294Z,76.66
2022-09-10T10:17:01.244Z,75.11
2022-09-10T10:19:35.175Z,74.89
2022-09-10T10:22:26.297Z,78.13
2022-09-10T10:24:54.466Z,79.39
2022-09-10T10:27:38.057Z,82.31
2022-09-10T10:30:16.777Z,80.85
2022-09-10T10:33:09.990Z,80.76
2022-09-10T10:36:10.063Z,82.39
2022-09-10T10:38:42.999Z,84.10
2022-09-10T10:41:30.745Z,82.40
2022-09-10T10:44:32.285Z,82.97
2022-09-10T10:47:15.346Z,84.31
2022-09-10T10:50:09.856Z,85.74
2022-09-10T10:53:07.161Z,85.20
2022-09-10T10:55:52.658Z,85.80
2022-09-10T10:58:29.282Z,85.33
2022-09-10T11:01:07.621Z,85.46
2022-09-10T11:03:52.789Z,85.27
2022-09-10T11:06:31.832Z,84.12
2022-09-10T11:09:08.005Z,85.40
2022-09-10T11:12:27.158Z,84.04
2022-09-10T11:15:16.490Z,82.98
2022-09-10T11:17:55.563Z,81.18
2022-09-10T11:20:34.316Z,80.51
2022-09-10T11:23:25.104Z,78.98
2022-09-10T11:26:04.709Z,77.63
2022-09-10T11:28:43.564Z,79.74
2022-09-10T11:31:35.385Z,76.91
2022-09-10T11:34:44.289Z,78.65
2022-09-10T11:37:20.420Z,79.39
2022-09-10T11:39:53.149Z,78.03
2022-09-10T11:42:30.315Z,77.29
2022-09-10T11:45:25.066Z,74.61
2022-09-10T11:48:30.184Z,75.20
2022-09-10T11:51:17.657Z,75.39
2022-09-10T11:53:45.226Z,73.44
2022-09-10T11:56:55.660Z,70.69
2022-09-10T12:00:17.565Z,73.72
2022-09-10T12:03:22.267Z,70.97
2022-09-10T12:06:13.928Z,68.34
2022-09-10T12:09:21.538Z,67.74
2022-09-10T12:11:56.231Z,68.27
2022-09-10T12:14:23.400Z,68.93
2022-09-10T12:17:03.603Z,68.34
2022-09-10T12:19:48.791Z,67.97
2022-09-10T12:22:40.230Z,69.64
2022-09-10T12:25:25.194Z,70.69
2022-09-10T12:28:08.078Z,66.72
2022-09-10T12:30:37.720Z,68.88
2022-09-10T12:33:27.877Z,64.72
2022-09-10T12:35:54.534Z,65.67
2022-09-10T12:39:18.113Z,65.13
2022-09-10T12:41:44.959Z,67.53
2022-09-10T12:44:46.002Z,66.66
2022-09-10T12:47:15.184Z,65.74
2022-09-10T12:49:57.150Z,66.51
2022-09-10T12:53:13.204Z,62.84
2022-09-10T12:56:02.070Z,62.74
2022-09-10T12:58:39.567Z,62.56
2022-09-10T13:01:25.729Z,60.25
2022-09-10T13:03:58.558Z,59.98
2022-09-10T13:06:40.189Z,59.87
2022-09-10T13:09:25.524Z,58.32
2022-09-10T13:11:57.032Z,58.89
2022-09-10T13:14:40.192Z,56.88
2022-09-10T13:17:06.868Z,58.32
2022-09-10T13:19:33.378Z,57.68
2022-09-10T13:21:59.992Z,58.17
2022-09-10T13:24:36.309Z,57.16
2022-09-10T13:27:22.677Z,56.80
2022-09-10T13:30:23.405Z,56.38
2022-09-10T13:33:04.574Z,55.80
2022-09-10T13:36:19.327Z,53.93
2022-09-10T13:39:12.261Z,51.64
2022-09-10T13:42:19.472Z,53.50
2022-09-10T13:45:14.740Z,52.24
2022-09-10T13:47:51.299Z,51.42
2022-09-10T13:50:33.142Z,48.02
2022-09-10T13:53:05.742Z,46.23
2022-09-10T13:55:34.674Z,45.05
2022-09-10T13:58:14.108Z,44.84
2022-09-10T14:00:56.019Z,43.45
2022-09-10T14:03:35.977Z,42.67
2022-09-10T14:06:07.859Z,43.36
2022-09-10T14:08:44.917Z,46.73
2022-09-10T14:11:14.042Z,49.00
2022-09-10T14:13:54.312Z,50.42
2022-09-10T14:16:31.991Z,52.26
2022-09-10T14:19:04.101Z,52.76
2022-09-10T14:21:32.038Z,54.88
2022-09-10T14:24:00.153Z,54.53
2022-09-10T14:26:33.695Z,55.86
2022-09-10T14:29:22.141Z,55.79
2022-09-10T14:31:50.016Z,56.46
2022-09-10T14:34:36.288Z,57.15
2022-09-10T14:37:39.489Z,58.04
2022-09-10T14:40:18.382Z,57.46
2022-09-10T14:42:50.498Z,57.58
2022-09-10T14:45:46.158Z,58.13
2022-09-10T14:48:36.922Z,58.89
2022-09-10T14:51:21.891Z,58.15
2022-09-10T14:53:55.615Z,57.96
2022-09-10T14:56:30.528Z,58.38
2022-09-10T14:59:13.476Z,58.46
2022-09-10T15:01:48.283Z,59.21
2022-09-10T15:04:19.212Z,60.58
2022-09-10T15:06:45.675Z,60.59
2022-09-10T15:09:15.410Z,62.96
2022-09-10T15:12:03.426Z,61.62
2022-09-10T15:14:32.396Z,61.98
2022-09-10T15:16:59.412Z,64.15
2022-09-10T15:19:26.380Z,65.62
2022-09-10T15:21:52.859Z,66.91
2022-09-10T15:24:22.836Z,69.41
2022-09-10T15:26:50.270Z,69.66
2022-09-10T15:29:17.935Z,69.30
2022-09-10T15:31:45.163Z,68.67
2022-09-10T15:34:11.992Z,69.14
2022-09-10T15:36:41.078Z,70.06
2022-09-10T15:39:12.547Z,69.90
2022-09-10T15:41:44.056Z,69.71
2022-09-10T15:44:12.213Z,70.90
2022-09-10T15:46:45.331Z,70.83
2022-09-10T15:49:12.220Z,70.86
2022-09-10T15:51:39.503Z,71.22
2022-09-10T15:54:06.824Z,70.99
2022-09-10T15:56:36.717Z,68.84
2022-09-10T15:59:05.879Z,69.57
2022-09-10T16:01:35.375Z,71.92
2022-09-10T16:04:02.889Z,71.66
2022-09-10T16:06:34.783Z,70.62
2022-09-10T16:09:06.137Z,68.75
2022-09-10T16:11:37.714Z,67.72
2022-09-10T16:14:08.103Z,67.27
2022-09-10T16:16:37.194Z,67.19
2022-09-10T16:19:05.744Z,67.60
2022-09-10T16:21:36.648Z,69.05
2022-09-10T16:24:05.870Z,69.97
2022-09-10T16:26:40.548Z,69.24
2022-09-10T16:29:14.438Z,68.59
2022-09-10T16:31:43.445Z,68.37
2022-09-10T16:34:13.478Z,68.02
2022-09-10T16:36:40.482Z,67.09
2022-09-10T16:39:12.549Z,67.15
2022-09-10T16:41:42.778Z,66.32
2022-09-10T16:44:11.166Z,65.79
2022-09-10T16:46:38.829Z,65.05
2022-09-10T16:49:06.147Z,64.62
2022-09-10T16:51:35.582Z,63.59
2022-09-10T16:54:05.964Z,64.02
2022-09-10T16:56:45.868Z,64.76
2022-09-10T16:59:22.839Z,64.80
2022-09-10T17:01:51.683Z,65.88
2022-09-10T17:04:28.341Z,66.09
2022-09-10T17:06:57.330Z,67.41
2022-09-10T17:09:24.942Z,67.17
2022-09-10T17:11:52.147Z,68.20
2022-09-10T17:14:19.596Z,68.47
2022-09-10T17:16:48.787Z,69.05
2022-09-10T17:19:27.427Z,69.34
2022-09-10T17:21:56.851Z,69.75
2022-09-10T17:24:26.861Z,70.56
2022-09-10T17:26:58.217Z,71.16
2022-09-10T17:29:26.630Z,71.79
2022-09-10T17:31:55.525Z,72.32
2022-09-10T17:34:24.322Z,72.61
2022-09-10T17:36:51.584Z,72.93
2022-09-10T17:39:19.144Z,73.39
2022-09-10T17:41:45.923Z,73.19
2022-09-10T17:44:13.753Z,73.74
2022-09-10T17:46:41.385Z,73.37
2022-09-10T17:49:08.245Z,73.68
2022-09-10T17:51:35.250Z,73.77
2022-09-10T17:54:05.265Z,73.90
2022-09-10T17:56:32.383Z,73.90
2022-09-10T17:59:02.709Z,74.07
2022-09-10T18:01:36.135Z,74.02
2022-09-10T18:04:04.290Z,74.38
2022-09-10T18:06:36.340Z,74.33
2022-09-10T18:09:04.703Z,74.97
2022-09-10T18:11:35.576Z,75.24
2022-09-10T18:14:03.137Z,74.99
2022-09-10T18:16:32.895Z,74.66
2022-09-10T18:19:13.816Z,75.18
2022-09-10T18:21:42.322Z,74.91
2022-09-10T18:24:24.083Z,75.13
2022-09-10T18:26:57.394Z,75.10
2022-09-10T18:29:29.795Z,74.67
2022-09-10T18:32:01.329Z,75.12
2022-09-10T18:34:30.896Z,74.94
2022-09-10T18:37:01.660Z,75.03
2022-09-10T18:39:31.117Z,74.92
2022-09-10T18:42:00.878Z,74.99
2022-09-10T18:44:33.300Z,75.17
2022-09-10T18:47:00.769Z,74.99
2022-09-10T18:49:27.400Z,75.16
2022-09-10T18:51:56.632Z,75.94
2022-09-10T18:54:25.231Z,75.48
2022-09-10T18:56:52.747Z,75.52
2022-09-10T18:59:23.036Z,75.79
2022-09-10T19:01:53.853Z,75.75
2022-09-10T19:04:25.937Z,76.07
2022-09-10T19:06:55.180Z,76.08
2022-09-10T19:09:33.867Z,75.92
2022-09-10T19:12:01.667Z,76.11
2022-09-10T19:14:35.699Z,76.12
2022-09-10T19:17:03.487Z,76.25
2022-09-10T19:19:34.889Z,76.40
2022-09-10T19:22:07.016Z,76.72
2022-09-10T19:24:54.027Z,76.71
2022-09-10T19:27:22.221Z,76.85
2022-09-10T19:29:50.173Z,76.86
2022-09-10T19:32:19.509Z,76.75
2022-09-10T19:34:49.699Z,76.97
2022-09-10T19:37:17.100Z,77.04
2022-09-10T19:39:44.499Z,77.05
2022-09-10T19:42:12.492Z,76.92
2022-09-10T19:44:39.374Z,76.92
2022-09-10T19:47:06.123Z,77.36
2022-09-10T19:49:34.093Z,77.09
2022-09-10T19:52:00.820Z,77.14
2022-09-10T19:54:28.572Z,77.00
2022-09-10T19:56:56.280Z,76.72
2022-09-10T19:59:23.089Z,74.75
2022-09-10T20:01:49.900Z,77.56
2022-09-10T20:04:16.972Z,79.26
2022-09-10T20:06:45.864Z,79.63
2022-09-10T20:09:12.653Z,80.48
2022-09-10T20:11:52.799Z,79.90
2022-09-10T20:14:20.162Z,81.12
2022-09-10T20:16:46.720Z,81.87
2022-09-10T20:19:18.422Z,81.55
2022-09-10T20:21:47.390Z,81.98
2022-09-10T20:24:14.670Z,80.24
2022-09-10T20:26:43.654Z,80.55
2022-09-10T20:29:13.879Z,80.26
2022-09-10T20:31:43.534Z,81.61
2022-09-10T20:34:17.821Z,82.55
2022-09-10T20:36:45.030Z,81.73
2022-09-10T20:39:14.874Z,82.14
2022-09-10T20:41:42.923Z,82.00
2022-09-10T20:44:14.387Z,83.37
2022-09-10T20:46:41.766Z,83.42
2022-09-10T20:49:11.461Z,83.07
2022-09-10T20:51:40.403Z,83.31
2022-09-10T20:54:11.754Z,84.04
2022-09-10T20:56:39.575Z,84.60
2022-09-10T20:59:06.331Z,84.59
2022-09-10T21:01:33.584Z,84.69
2022-09-10T21:04:04.102Z,84.98
2022-09-10T21:06:34.428Z,85.31
2022-09-10T21:09:02.746Z,85.76
2022-09-10T21:11:49.328Z,85.62
2022-09-10T21:14:17.202Z,85.77
2022-09-10T21:16:45.247Z,86.20
2022-09-10T21:19:16.156Z,85.73
2022-09-10T21:21:44.987Z,85.89
2022-09-10T21:24:22.473Z,85.72
2022-09-10T21:26:50.652Z,86.26
2022-09-10T21:29:20.287Z,86.49
2022-09-10T21:31:49.980Z,86.57
2022-09-10T21:34:17.536Z,86.80
2022-09-10T21:36:45.177Z,85.75
2022-09-10T21:39:15.790Z,86.68
2022-09-10T21:41:49.305Z,86.29
2022-09-10T21:44:22.964Z,86.86
2022-09-10T21:46:51.102Z,87.03
2022-09-10T21:49:19.183Z,87.25
2022-09-10T21:51:46.267Z,87.51
2022-09-10T21:54:18.532Z,87.55
2022-09-10T21:56:45.571Z,86.41
2022-09-10T21:59:13.258Z,87.12
2022-09-10T22:01:43.912Z,87.45
2022-09-10T22:04:12.018Z,87.28
2022-09-10T22:06:39.531Z,86.86
2022-09-10T22:09:10.359Z,86.91
2022-09-10T22:11:46.955Z,86.30
2022-09-10T22:14:18.141Z,86.22
2022-09-10T22:16:45.608Z,86.73
2022-09-10T22:19:18.021Z,87.44
2022-09-10T22:21:45.456Z,86.78
2022-09-10T22:24:14.678Z,87.40
2022-09-10T22:26:44.426Z,86.57
2022-09-10T22:29:12.854Z,86.79
2022-09-10T22:31:39.850Z,86.27
2022-09-10T22:34:11.082Z,86.25
2022-09-10T22:36:41.047Z,85.76
2022-09-10T22:39:13.403Z,86.38
2022-09-10T22:41:41.619Z,86.40
2022-09-10T22:44:09.537Z,86.07
2022-09-10T22:46:38.052Z,87.20
2022-09-10T22:49:06.704Z,86.06
2022-09-10T22:51:39.845Z,86.09
2022-09-10T22:54:08.345Z,85.94
2022-09-10T22:56:35.860Z,86.61
2022-09-10T22:59:04.105Z,86.77
2022-09-10T23:01:36.631Z,86.77
2022-09-10T23:04:05.732Z,86.93
2022-09-10T23:06:35.399Z,87.42
2022-09-10T23:09:13.674Z,87.29
2022-09-10T23:11:41.735Z,87.01
2022-09-10T23:14:15.514Z,87.57
2022-09-10T23:16:48.277Z,87.93
2022-09-10T23:19:19.723Z,88.28
2022-09-10T23:21:49.894Z,87.81
2022-09-10T23:24:19.720Z,87.50
2022-09-10T23:26:46.644Z,87.11
2022-09-10T23:29:15.633Z,87.28
2022-09-10T23:31:42.326Z,87.01
2022-09-10T23:34:16.635Z,87.95
2022-09-10T23:36:46.230Z,87.56
2022-09-10T23:39:19.714Z,87.30
2022-09-10T23:41:52.053Z,86.88
2022-09-10T23:44:19.661Z,86.67
2022-09-10T23:46:46.501Z,87.16
2022-09-10T23:49:13.243Z,87.54
2022-09-10T23:51:40.053Z,86.67
2022-09-10T23:54:07.022Z,86.69
2022-09-10T23:56:33.673Z,87.42
2022-09-10T23:59:00.761Z,86.94
